Time;durP1;ratioP1;P1;durP2;ratioP2;P2;SDS_P1;SDS_P2;PMS_P1;PMS_P2;Temp;Humidity;BMP_temperature;BMP_pressure;BME280_temperature;BME280_humidity;BME280_pressure;Samples;Min_cycle;Max_cycle;Signal;HPM_P1;HPM_P2
2022/09/26 00:00:02;;;;;;;;;;;;;;;;;;20673773;28;19937;-62
2022/09/26 00:10:04;;;;;;;;;;;;;;;;;;20671935;28;19926;-59
2022/09/26 00:20:06;;;;;;;;;;;;;;;;;;20670163;28;19926;-68
2022/09/26 00:30:08;;;;;;;;;;;;;;;;;;20669674;28;19926;-65
2022/09/26 00:40:10;;;;;;;;;;;;;;;;;;20671246;28;19926;-67
2022/09/26 00:50:12;;;;;;;;;;;;;;;;;;20671156;28;19938;-69
2022/09/26 01:00:14;;;;;;;;;;;;;;;;;;20669099;28;20378;-67
2022/09/26 01:10:16;;;;;;;;;;;;;;;;;;20666989;28;19926;-68
2022/09/26 01:20:17;;;;;;;;;;;;;;;;;;20667217;28;20263;-68
2022/09/26 01:30:18;;;;;;;;;;;;;;;;;;20666313;28;19926;-69
2022/09/26 01:40:20;;;;;;;;;;;;;;;;;;20682117;28;19972;-64
2022/09/26 01:50:21;;;;;;;;;;;;;;;;;;20682601;28;19926;-61
2022/09/26 02:00:22;;;;;;;;;;;;;;;;;;20681345;28;19937;-60
2022/09/26 02:10:23;;;;;;;;;;;;;;;;;;20681261;28;19926;-57
2022/09/26 02:20:25;;;;;;;;;;;;;;;;;;20679439;28;19932;-67
2022/09/26 02:30:27;;;;;;;;;;;;;;;;;;20679383;28;19925;-63
2022/09/26 02:40:42;;;;;;;;;;;;;;;;;;20677581;28;19929;-58
2022/09/26 02:50:47;;;;;;;;;;;;;;;;;;20675735;28;19932;-60
2022/09/26 03:00:50;;;;;;;;;;;;;;;;;;20676892;28;19930;-59
2022/09/26 03:10:54;;;;;;;;;;;;;;;;;;20674118;28;19925;-62
2022/09/26 03:20:57;;;;;;;;;;;;;;;;;;20674534;28;19925;-57
2022/09/26 03:31:00;;;;;;;;;;;;;;;;;;20674259;28;19926;-60
2022/09/26 03:41:02;;;;;;;;;;;;;;;;;;20672985;28;19988;-68
2022/09/26 03:51:04;;;;;;;;;;;;;;;;;;20672835;28;19926;-63
2022/09/26 04:01:06;;;;;;;;;;;;;;;;;;20670650;28;19925;-58
2022/09/26 04:11:08;;;;;;;;;;;;;;;;;;20670812;28;20271;-58
2022/09/26 04:21:12;;;;;;;;;;;;;;;;;;20670045;28;19926;-66
2022/09/26 04:31:15;;;;;;;;;;;;;;;;;;20669311;28;19925;-58
2022/09/26 04:41:17;;;;;;;;;;;;;;;;;;20668538;28;19933;-58
2022/09/26 04:51:20;;;;;;;;;;;;;;;;;;20667276;28;20397;-65
2022/09/26 05:01:22;;;;;;;;;;;;;;;;;;20667365;28;19930;-58
2022/09/26 05:11:24;;;;;;;;;;;;;;;;;;20682198;28;19934;-68
2022/09/26 05:21:26;;;;;;;;;;;;;;;;;;20693863;28;19981;-66
2022/09/26 05:31:28;;;;;;;;;;;;;;;;;;20693987;28;20012;-67
2022/09/26 05:41:31;;;;;;;;;;;;;;;;;;20694879;28;19965;-58
2022/09/26 05:51:33;;;;;;;;;;;;;;;;;;20693036;28;19930;-59
2022/09/26 06:01:35;;;;;;;;;;;;;;;;;;20692744;28;19926;-64
2022/09/26 06:11:36;;;;;;;;;;;;;;;;;;20692763;28;19932;-65
2022/09/26 06:21:39;;;;;;;;;;;;;;;;;;20686304;28;19932;-57
2022/09/26 06:31:42;;;;;;;;;;;;;;;;;;20678456;28;19932;-66
2022/09/26 06:41:44;;;;;;;;;;;;;;;;;;20677086;28;19926;-57
2022/09/26 06:51:47;;;;;;;;;;;;;;;;;;20677646;28;19925;-58
2022/09/26 07:01:50;;;;;;;;;;;;;;;;;;20676702;28;19932;-58
2022/09/26 07:11:52;;;;;;;;;;;;;;;;;;20674579;28;19934;-57
2022/09/26 07:21:53;;;;;;;;;;;;;;;;;;20674375;28;19926;-58
2022/09/26 07:31:55;;;;;;;;;;;;;;;;;;20673848;28;20289;-57
2022/09/26 07:41:59;;;;;;;;;;;;;;;;;;20673182;28;20020;-57
2022/09/26 07:52:01;;;;;;;;;;;;;;;;;;20671879;28;19926;-59
2022/09/26 08:02:03;;;;;;;;;;;;;;;;;;20671521;28;19977;-61
2022/09/26 08:12:05;;;;;;;;;;;;;;;;;;20670693;28;19930;-57
2022/09/26 08:22:07;;;;;;;;;;;;;;;;;;20668412;28;19991;-58
2022/09/26 08:32:09;;;;;;;;;;;;;;;;;;20669297;28;19973;-58
2022/09/26 08:42:12;;;;;;;;;;;;;;;;;;20667710;28;19979;-58
2022/09/26 08:52:13;;;;;;;;;;;;;;;;;;20719190;28;20023;-58
2022/09/26 09:02:15;;;;;;;;;;;;;;;;;;20746567;28;19979;-57
2022/09/26 09:12:17;;;;;;;;;;;;;;;;;;20747805;28;19926;-59
2022/09/26 09:22:19;;;;;;;;;;;;;;;;;;20741941;28;19971;-60
2022/09/26 09:32:21;;;;;;;;;;;;;;;;;;20747271;28;19925;-64
2022/09/26 09:42:23;;;;;;;;;;;;;;;;;;20747584;28;19926;-61
2022/09/26 09:52:25;;;;;;;;;;;;;;;;;;20748248;28;19925;-58
2022/09/26 10:02:30;;;;;;;;;;;;;;;;;;20761922;28;19926;-61
2022/09/26 10:12:33;;;;;;;;;;;;;;;;;;20760231;28;20310;-62
2022/09/26 10:22:36;;;;;;;;;;;;;;;;;;20758956;28;19925;-59
2022/09/26 10:32:38;;;;;;;;;;;;;;;;;;20759098;28;19925;-59
2022/09/26 10:42:40;;;;;;;;;;;;;;;;;;20765554;28;19933;-72
2022/09/26 10:52:42;;;;;;;;;;;;;;;;;;20785586;28;20024;-63
2022/09/26 11:02:45;;;;;;;;;;;;;;;;;;20770115;28;19926;-67
2022/09/26 11:12:46;;;;;;;;;;;;;;;;;;20824531;28;19971;-57
2022/09/26 11:22:49;;;;;;;;;;;;;;;;;;20782464;28;20374;-74
2022/09/26 11:32:54;;;;;;;;;;;;;;;;;;20784058;28;19948;-71
2022/09/26 11:42:56;;;;;;;;;;;;;;;;;;20736052;28;19925;-65
2022/09/26 11:52:58;;;;;;;;;;;;;;;;;;20732592;28;20290;-67
2022/09/26 12:03:00;;;;;;;;;;;;;;;;;;20734310;28;19933;-65
2022/09/26 12:13:03;;;;;;;;;;;;;;;;;;20751955;28;19936;-62
2022/09/26 12:23:05;;;;;;;;;;;;;;;;;;20750922;28;20381;-59
2022/09/26 12:33:07;;;;;;;;;;;;;;;;;;20750937;28;19932;-64
2022/09/26 12:43:12;;;;;;;;;;;;;;;;;;20750485;28;20381;-65
2022/09/26 12:53:16;;;;;;;;;;;;;;;;;;20749352;28;20431;-59
2022/09/26 13:03:17;;;;;;;;;;;;;;;;;;20748843;28;19925;-66
2022/09/26 13:13:21;;;;;;;;;;;;;;;;;;20748344;28;19987;-63
2022/09/26 13:23:26;;;;;;;;;;;;;;;;;;20747773;28;19936;-66
2022/09/26 13:33:29;;;;;;;;;;;;;;;;;;20758585;28;20020;-58
2022/09/26 13:43:33;;;;;;;;;;;;;;;;;;20746486;28;19926;-63
2022/09/26 13:53:36;;;;;;;;;;;;;;;;;;20762774;28;20016;-60
2022/09/26 14:03:38;;;;;;;;;;;;;;;;;;20764195;28;19925;-68
2022/09/26 14:13:43;;;;;;;;;;;;;;;;;;20761957;28;19971;-61
2022/09/26 14:23:45;;;;;;;;;;;;;;;;;;20761364;28;19952;-62
2022/09/26 14:33:47;;;;;;;;;;;;;;;;;;20759244;28;19948;-56
2022/09/26 14:43:50;;;;;;;;;;;;;;;;;;20758609;28;19925;-60
2022/09/26 14:53:52;;;;;;;;;;;;;;;;;;20757740;28;20012;-58
2022/09/26 15:03:55;;;;;;;;;;;;;;;;;;20757596;28;20377;-58
2022/09/26 15:13:57;;;;;;;;;;;;;;;;;;20756665;28;19932;-64
2022/09/26 15:23:59;;;;;;;;;;;;;;;;;;20757337;28;20350;-66
2022/09/26 15:34:01;;;;;;;;;;;;;;;;;;20754879;28;19930;-58
2022/09/26 15:44:03;;;;;;;;;;;;;;;;;;20754166;28;20378;-59
2022/09/26 15:54:05;;;;;;;;;;;;;;;;;;20753426;28;20028;-60
2022/09/26 16:04:06;;;;;;;;;;;;;;;;;;20735892;28;20374;-58
2022/09/26 16:14:08;;;;;;;;;;;;;;;;;;20751928;28;19925;-59
2022/09/26 16:24:10;;;;;;;;;;;;;;;;;;20750685;28;19925;-64
2022/09/26 16:34:12;;;;;;;;;;;;;;;;;;20750150;28;19926;-58
2022/09/26 16:44:13;;;;;;;;;;;;;;;;;;20750376;28;19936;-61
2022/09/26 16:54:19;;;;;;;;;;;;;;;;;;20750645;28;19950;-59
2022/09/26 17:04:21;;;;;;;;;;;;;;;;;;20732296;28;19971;-66
2022/09/26 17:14:22;;;;;;;;;;;;;;;;;;20735207;28;19933;-61
2022/09/26 17:24:25;;;;;;;;;;;;;;;;;;20649166;28;19972;-63
2022/09/26 17:34:27;;;;;;;;;;;;;;;;;;20727649;28;19933;-62
2022/09/26 17:44:29;;;;;;;;;;;;;;;;;;20746462;28;20390;-60
2022/09/26 17:54:33;;;;;;;;;;;;;;;;;;20746143;28;19996;-61
2022/09/26 18:04:35;;;;;;;;;;;;;;;;;;20746748;28;20293;-59
2022/09/26 18:14:37;;;;;;;;;;;;;;;;;;20748769;28;19932;-60
2022/09/26 18:24:39;;;;;;;;;;;;;;;;;;20760546;28;19932;-61
2022/09/26 18:34:41;;;;;;;;;;;;;;;;;;20759743;28;20301;-61
2022/09/26 18:44:43;;;;;;;;;;;;;;;;;;20758927;28;19925;-61
2022/09/26 18:54:45;;;;;;;;;;;;;;;;;;20758593;28;20400;-59
2022/09/26 19:04:46;;;;;;;;;;;;;;;;;;20757633;28;19925;-59
2022/09/26 19:15:06;;;;;;;;;;;;;;;;;;20756141;28;20099;-58
2022/09/26 19:25:08;;;;;;;;;;;;;;;;;;20753962;28;19957;-60
2022/09/26 19:35:10;;;;;;;;;;;;;;;;;;20754710;28;19933;-58
2022/09/26 19:45:12;;;;;;;;;;;;;;;;;;20753970;28;19988;-61
2022/09/26 19:55:14;;;;;;;;;;;;;;;;;;20736015;28;19929;-58
2022/09/26 20:05:15;;;;;;;;;;;;;;;;;;20753101;28;19995;-62
2022/09/26 20:15:19;;;;;;;;;;;;;;;;;;20752867;28;19926;-62
2022/09/26 20:25:20;;;;;;;;;;;;;;;;;;20752304;28;19983;-59
2022/09/26 20:35:23;;;;;;;;;;;;;;;;;;20750481;28;19925;-60
2022/09/26 20:45:24;;;;;;;;;;;;;;;;;;20751186;28;20385;-59
2022/09/26 20:55:26;;;;;;;;;;;;;;;;;;20749447;28;19930;-63
2022/09/26 21:05:29;;;;;;;;;;;;;;;;;;20748181;28;19965;-60
2022/09/26 21:15:31;;;;;;;;;;;;;;;;;;20749214;28;19980;-59
2022/09/26 21:25:33;;;;;;;;;;;;;;;;;;20746587;28;19926;-60
2022/09/26 21:35:35;;;;;;;;;;;;;;;;;;20745826;28;20016;-59
2022/09/26 21:45:37;;;;;;;;;;;;;;;;;;20745925;28;20440;-61
2022/09/26 21:55:39;;;;;;;;;;;;;;;;;;20758733;28;19979;-61
2022/09/26 22:05:41;;;;;;;;;;;;;;;;;;20762180;28;19925;-60
2022/09/26 22:15:43;;;;;;;;;;;;;;;;;;20762586;28;19933;-60
2022/09/26 22:25:45;;;;;;;;;;;;;;;;;;20760386;28;19979;-59
2022/09/26 22:35:46;;;;;;;;;;;;;;;;;;20760167;28;19925;-58
2022/09/26 22:45:48;;;;;;;;;;;;;;;;;;20759678;28;19937;-59
2022/09/26 22:55:51;;;;;;;;;;;;;;;;;;20759421;28;20013;-62
2022/09/26 23:05:54;;;;;;;;;;;;;;;;;;20757706;28;19926;-60
2022/09/26 23:15:55;;;;;;;;;;;;;;;;;;20757701;28;20374;-60
2022/09/26 23:25:57;;;;;;;;;;;;;;;;;;20756014;28;19931;-60
2022/09/26 23:35:59;;;;;;;;;;;;;;;;;;20755390;28;19977;-59
2022/09/26 23:46:01;;;;;;;;;;;;;;;;;;20754355;28;19926;-60
2022/09/26 23:56:03;;;;;;;;;;;;;;;;;;20753616;28;19964;-60
